Weather observations for the past three days for
De Kalb Taylor Municipal Airport
Imperial (Metric)
Date Time (cdt) Wind (mph) Vis. (mi.) Weather Sky Cond. Temperature (ºF) Relative Humidity Wind Chill (°F) Heat Index (°F) Pressure Precipitation (in)
Air Dwpt 6 hour altimeter (in) sea level (mb) 1 hr 3 hr 6 hr
Max. Min.
09 06:35 SW 14 10.00 Partly Cloudy SCT110 52.7 48.2 85% 29.65 0.0
09 06:15 SW 12 10.00 Partly Cloudy SCT110 51.8 47.8 86% 29.65 0.0
09 05:55 SW 9 10.00 Mostly Cloudy BKN110 50.5 48 91% 29.64 0.0
09 05:35 SW 8 10.00 Mostly Cloudy BKN110 51.1 48.2 90% 29.65 0.0
09 05:15 SW 8 10.00 Mostly Cloudy BKN110 51.3 48.6 91% 29.64 0.0
09 04:55 SW 7 10.00 Partly Cloudy SCT110 50.9 48.7 92% 29.64 0.0
09 04:35 SW 10 10.00 Fair CLR 50.9 48.6 92% 29.64 0.0
09 04:15 S 10 10.00 Fair CLR 50.4 48.4 93% 29.64 0.0
09 03:55 SW 10 10.00 Fair CLR 51.3 49.1 92% 29.65 0.0
09 03:35 SW 10 10.00 Fair CLR 51.1 49.1 93% 29.66 0.0
09 03:15 SW 8 10.00 Fair CLR 50.9 49.1 94% 29.66 0.0
09 02:55 SW 8 10.00 Fair CLR 51.1 48.4 91% 29.66 0.0
09 02:35 SW 8 10.00 Fair CLR 52 48.7 89% 29.66 0.0
09 02:15 SW 12 10.00 Fair CLR 52.9 48.9 87% 29.67 0.0
09 01:55 SW 14 10.00 Fair CLR 53.1 48.9 86% 29.67 0.0
09 01:15 SW 12 10.00 Fair CLR 52.7 48.2 85% 29.69 0.0
09 00:55 SW 13 10.00 Fair CLR 53.1 48.2 65.1 51.8 84% 29.7 0.0
09 00:35 SW 10 10.00 Fair CLR 52.7 49.1 88% 29.7 0.0
09 00:15 SW 10 10.00 Fair CLR 52 49.5 91% 29.7 0.0
08 23:55 SW 10 10.00 Fair CLR 52.7 49.6 89% 29.7 0.0
08 23:35 SW 10 10.00 Fair CLR 53.1 49.3 87% 29.7 0.0
08 23:15 SW 10 10.00 Fair CLR 53.8 49.1 84% 29.7 0.0
08 22:55 SW 12 10.00 Fair CLR 54.5 48.2 79% 29.7 0.0
08 22:35 SW 14 10.00 Fair CLR 55 47.5 76% 29.7 0.0
08 22:15 SW 14 10.00 Fair CLR 55.9 47.8 74% 29.71 0.0
08 21:55 SW 12 10.00 Fair CLR 55.9 47.3 73% 29.71 0.0
08 21:35 S 10 10.00 Fair CLR 56.5 45.1 66% 29.71 0.0
08 21:15 S 8 10.00 Fair CLR 55.2 43.3 64% 29.71 0.0
08 20:55 S 8 10.00 Fair CLR 56.3 42.6 60% 29.7 0.0
08 20:35 SW 9 10.00 Fair CLR 56.7 42.1 58% 29.7 0.0
08 20:15 SW 7 10.00 Fair CLR 59.4 42.1 53% 29.7 0.0
08 19:55 SW 10 10.00 Fair CLR 62.6 42.1 47% 29.7 0.0
08 19:35 SW 9 10.00 Fair CLR 62.6 43.7 50% 29.7 0.0
08 19:15 SW 12 10.00 Partly Cloudy SCT085 63.1 45 52% 29.7 0.0
08 18:55 SW 14 G 18 10.00 Mostly Cloudy BKN085 64.9 45.5 67.5 62.6 50% 29.71 0.0
08 18:35 SW 14 10.00 Overcast OVC095 64.4 44.6 49% 29.71 0.0
08 18:15 SW 8 10.00 Overcast OVC085 65.1 40.8 41% 29.71 0.0
08 17:55 SW 10 10.00 Mostly Cloudy BKN085 67.5 38.3 34% 29.71 0.0
08 17:35 W 5 10.00 Partly Cloudy SCT095 65.5 38.1 37% 29.71 0.0
08 17:15 W 8 10.00 Mostly Cloudy BKN095 67.1 39.7 37% 29.71 0.0
08 16:55 W 8 10.00 Overcast SCT075 OVC095 67.3 40.1 37% 29.72 0.0
08 16:35 W 5 10.00 Mostly Cloudy SCT075 BKN095 64.6 40.1 41% 29.72 0.0
08 16:15 SW 6 10.00 Partly Cloudy SCT095 65.8 41.2 41% 29.72 0.0
08 15:55 S 5 10.00 Fair CLR 64.8 43 45% 29.73 0.0
08 15:35 SW 7 10.00 Fair CLR 65.7 43.5 45% 29.74 0.0
08 15:15 S 12 10.00 Fair CLR 66 45.5 48% 29.75 0.0
08 14:55 SW 9 10.00 Partly Cloudy SCT070 SCT080 64.2 44.4 49% 29.76 0.0
08 14:35 SW 8 10.00 Mostly Cloudy SCT060 BKN070 BKN080 65.1 44.8 48% 29.76 0.0
08 14:15 S 9 10.00 Mostly Cloudy SCT060 BKN080 BKN090 64.9 44.4 48% 29.77 0.0
08 13:55 S 3 10.00 Mostly Cloudy SCT060 BKN080 63 42.6 48% 29.78 0.0
08 13:35 S 7 10.00 Mostly Cloudy SCT060 BKN070 64 44.8 50% 29.78 0.0
08 13:15 S 7 10.00 Mostly Cloudy SCT060 BKN070 62.8 43.7 50% 29.79 0.0
08 12:55 Calm 10.00 Partly Cloudy SCT050 SCT080 63.1 41.5 63.5 42.3 45% 29.8 0.0
08 12:35 S 9 10.00 Mostly Cloudy BKN050 62.1 40.8 46% 29.81 0.0
08 12:15 Calm 10.00 Mostly Cloudy BKN044 BKN049 62.6 43.2 49% 29.82 0.0
08 11:55 Calm 10.00 Mostly Cloudy BKN042 BKN048 61.5 46 57% 29.82 0.0
08 11:35 SE 8 10.00 Fair CLR 61.5 45.3 55% 29.83 0.0
08 11:15 E 9 10.00 Fair CLR 61.9 45.7 56% 29.84 0.0
08 10:55 S 3 10.00 Fair CLR 59.9 41.5 51% 29.85 0.0
08 10:35 S 5 10.00 Fair CLR 59 41.2 52% 29.85 0.0
08 10:15 SE 6 10.00 Fair CLR 58.1 42.6 57% 29.85 0.0
08 09:55 SE 7 10.00 Fair CLR 57.2 40.1 53% 29.86 0.0
08 09:35 SE 8 10.00 Partly Cloudy SCT090 56.5 38.8 52% 29.86 0.0
08 08:55 SE 8 10.00 Partly Cloudy SCT090 52.9 42.8 69% 29.87 0.0
08 08:35 SE 8 10.00 Partly Cloudy SCT090 51.8 43.2 73% 29.87 0.0
08 08:15 SE 6 10.00 Mostly Cloudy BKN090 49.3 41.9 76% 47 29.87 0.0
08 07:55 E 5 7.00 Mostly Cloudy BKN090 47.3 42.1 82% 46 29.86 0.0
08 07:35 E 5 7.00 Mostly Cloudy BKN090 45.1 41 86% 43 29.87 0.0
08 07:15 E 5 10.00 Mostly Cloudy BKN090 44.1 39.6 84% 42 29.86 0.0
08 06:55 E 5 10.00 Partly Cloudy SCT100 41.7 38.5 46 38.5 88% 39 29.86 0.0
08 06:35 E 3 10.00 Mostly Cloudy BKN100 41 37.8 88% 29.85 0.0
08 05:55 SE 3 10.00 Overcast OVC110 40.6 35.4 82% 29.85 0.0
08 05:35 E 3 10.00 Mostly Cloudy SCT100 BKN120 39.7 35.6 85% 29.85 0.0
08 05:15 Calm 10.00 Mostly Cloudy BKN100 40.3 35.6 83% 29.86 0.0
08 04:55 Calm 10.00 Mostly Cloudy BKN110 39.9 34.9 82% 29.86 0.0
08 04:35 Calm 10.00 Partly Cloudy SCT110 40.5 35.2 82% 29.86 0.0
08 04:15 Calm 10.00 Fair CLR 40.3 34.5 80% 29.87 0.0
08 03:55 Calm 10.00 Partly Cloudy SCT110 41 34 76% 29.86 0.0
08 03:35 Calm 10.00 Mostly Cloudy BKN110 41.7 34.5 76% 29.87 0.0
08 03:15 Calm 10.00 Overcast BKN100 OVC120 42.3 33.4 71% 29.87 0.0
08 02:55 Calm 10.00 Mostly Cloudy BKN100 BKN120 42.3 32.4 68% 29.88 0.0
08 02:35 Calm 10.00 Mostly Cloudy SCT100 BKN120 42.4 32.2 67% 29.88 0.0
08 02:15 Calm 10.00 Mostly Cloudy BKN120 41.7 32.7 70% 29.88 0.0
08 01:55 NW 3 10.00 Partly Cloudy SCT110 44.1 31.8 62% 29.89 0.0
08 01:35 W 5 10.00 Partly Cloudy SCT100 43.9 31.8 63% 42 29.89 0.0
08 01:15 W 3 10.00 Fair CLR 44.6 32 61% 29.89 0.0
08 00:55 NW 5 10.00 Fair CLR 45.9 31.8 57.6 42.3 58% 44 29.89 0.0
08 00:35 NW 6 10.00 Fair CLR 48.2 31.5 52% 46 29.88 0.0
08 00:15 W 3 10.00 Fair CLR 46.6 32 57% 29.88 0.0
07 23:55 W 3 10.00 Fair CLR 47.1 32.5 57% 29.88 0.0
07 23:35 W 5 10.00 Fair CLR 46.9 33.4 60% 45 29.88 0.0
07 23:15 SW 5 10.00 Fair CLR 46.4 33.4 61% 45 29.87 0.0
07 22:55 Calm 10.00 Fair CLR 50.2 30.6 47% 29.87 0.0
07 22:35 W 3 10.00 Fair CLR 51.6 30.2 44% 29.86 0.0
07 22:15 W 3 10.00 Fair CLR 52 30.7 44% 29.86 0.0
07 21:55 W 5 10.00 Fair CLR 52 31.3 45% 29.86 0.0
07 21:35 W 5 10.00 Fair CLR 53.1 31.8 44% 29.85 0.0
07 21:15 W 5 10.00 Fair CLR 54.1 31.5 42% 29.85 0.0
07 20:55 W 6 10.00 Fair CLR 54.9 32 42% 29.84 0.0
07 20:15 W 7 10.00 Mostly Cloudy BKN080 55.4 36.1 48% 29.83 0.0
07 19:55 W 7 10.00 Fair CLR 56.3 36 47% 29.82 0.0
07 19:35 W 7 10.00 Fair CLR 56.5 37 48% 29.82 0.0
07 19:15 W 6 10.00 Fair CLR 56.7 37.6 49% 29.82 0.0
07 18:55 W 8 10.00 Fair CLR 57 38.3 60.6 52.5 50% 29.82 0.0
07 18:35 SW 7 10.00 Fair CLR 56.1 38.1 51% 29.82 0.0
07 18:15 SW 9 10.00 Partly Cloudy SCT090 57.2 39.2 51% 29.82 0.0
07 17:55 W 6 10.00 Light Rain SCT029 SCT049 BKN090 55.4 39 54% 29.83 0.0
07 17:35 W 3 10.00 Partly Cloudy SCT040 SCT065 SCT075 55 38.5 54% 29.83 0.0
07 17:15 NW 10 10.00 Mostly Cloudy SCT043 BKN060 BKN090 55.4 37.6 51% 29.84 0.0
07 16:55 NW 8 10.00 Overcast BKN065 BKN080 OVC090 54.9 39.2 56% 29.84 0.0
07 16:35 N 8 10.00 Mostly Cloudy SCT075 BKN085 BKN110 55 39 55% 29.84 0.0
07 16:15 N 13 G 16 10.00 Mostly Cloudy BKN075 BKN085 BKN100 55 40.5 58% 29.84 0.0
07 15:55 NW 12 G 28 10.00 Overcast BKN060 OVC080 57 33.4 41% 29.83 0.0
07 15:35 W 20 G 24 10.00 Overcast SCT060 BKN070 OVC080 58.1 34.9 42% 29.83 0.0
07 15:15 SW 21 G 29 10.00 Mostly Cloudy and Breezy SCT050 BKN070 59 36.3 43% 29.83 0.0
07 14:55 W 17 G 23 10.00 Mostly Cloudy BKN050 BKN070 BKN090 59.9 37.4 43% 29.84 0.0
07 14:35 SW 18 G 29 10.00 Mostly Cloudy SCT050 SCT065 BKN080 57.4 37.2 47% 29.85 0.0
07 14:15 SW 22 G 31 10.00 Partly Cloudy and Breezy SCT050 SCT070 SCT100 58.1 37.9 47% 29.86 0.0
07 13:55 SW 18 G 26 10.00 Mostly Cloudy BKN050 BKN075 BKN100 56.8 37.2 48% 29.87 0.0
07 13:35 W 17 G 25 10.00 Partly Cloudy SCT050 56.5 37.4 49% 29.88 0.0
07 13:15 SW 18 G 25 10.00 Partly Cloudy SCT055 56.8 37.6 49% 29.89 0.0
07 12:55 SW 21 G 29 10.00 Partly Cloudy and Breezy SCT055 SCT080 56.7 34.9 57.4 35.6 44% 29.89 0.0
07 12:35 SW 18 G 28 10.00 Mostly Cloudy SCT065 BKN080 56.7 34.3 43% 29.9 0.0
07 12:15 SW 17 G 23 10.00 Partly Cloudy SCT065 56.8 31.6 38% 29.9 0.0
07 11:55 SW 17 G 25 10.00 Partly Cloudy SCT065 SCT080 57 32.7 40% 29.91 0.0
07 11:35 SW 16 G 22 10.00 Partly Cloudy SCT090 55.9 33.3 42% 29.92 0.0
07 11:15 S 16 G 20 10.00 Fair CLR 54 32.5 44% 29.94 0.0
07 10:55 SW 9 G 21 10.00 Partly Cloudy SCT090 SCT110 54.3 32.4 43% 29.94 0.0
07 10:35 S 8 10.00 Partly Cloudy SCT090 52.7 31.8 45% 29.95 0.0
07 10:15 S 8 10.00 Fair CLR 51.8 30.9 45% 29.96 0.0
07 09:55 S 7 10.00 Partly Cloudy SCT080 51.3 30.7 46% 29.96 0.0
07 09:35 S 8 10.00 Mostly Cloudy BKN080 BKN090 50 30 46% 47 29.98 0.0
07 09:15 SW 3 10.00 Partly Cloudy SCT080 SCT090 48.6 30 49% 29.99 0.0
07 08:55 S 8 10.00 Mostly Cloudy SCT080 SCT090 BKN110 46.9 30.4 53% 44 29.99 0.0
07 08:35 S 7 10.00 Partly Cloudy SCT095 SCT110 45.3 29.5 54% 42 30 0.0
07 08:15 S 7 10.00 Mostly Cloudy BKN095 43.7 30.2 59% 40 30 0.0
07 07:55 S 7 10.00 Partly Cloudy SCT085 41.9 30.2 63% 38 30 0.0
07 07:35 S 3 10.00 Fair CLR 40.5 30 66% 30.01 0.0
07 07:15 S 3 10.00 Fair CLR 37.6 29.1 72% 30 0.0
07 06:55 Calm 10.00 Fair CLR 35.6 27.5 38.3 29.5 72% 29.99 0.0
07 06:35 Calm 10.00 Fair CLR 34.2 25.7 71% 29.99 0.0
07 06:15 Calm 10.00 Fair CLR 32.5 25.7 76% 29.99 0.0
07 05:55 Calm 10.00 Fair CLR 32.7 26.4 78% 29.99 0.0
07 05:35 Calm 10.00 Fair CLR 31.1 25.9 81% 29.99 0.0
07 05:15 S 3 10.00 Fair CLR 31.1 24.8 77% 29.99 0.0
07 04:55 Calm 10.00 Fair CLR 32.2 25.9 78% 29.99 0.0
07 04:35 Calm 10.00 Fair CLR 32.5 25.5 75% 29.99 0.0
07 04:15 Calm 10.00 Fair CLR 35.1 25.7 69% 29.99 0.0
07 03:55 SW 3 10.00 Fair CLR 35.4 25.7 68% 29.99 0.0
07 03:35 SW 3 10.00 Fair CLR 34.5 26.6 73% 29.99 0.0
07 03:15 Calm 10.00 Fair CLR 33.4 26.1 74% 29.99 0.0
07 02:55 Calm 10.00 Fair CLR 35.8 27 70% 29.99 0.0
07 02:35 W 3 10.00 Fair CLR 35.8 26.4 69% 30 0.0
07 02:15 W 3 10.00 Fair CLR 36.5 26.2 66% 30 0.0
07 01:55 W 3 10.00 Fair CLR 37 25.7 64% 30.01 0.0
07 01:35 W 3 10.00 Fair CLR 37.4 25.7 63% 30.01 0.0
07 01:15 W 5 10.00 Fair CLR 37 25.9 64% 34 30.01 0.0
07 00:55 W 5 10.00 Fair CLR 38.3 25.7 48.4 37.9 61% 35 30.01 0.0
07 00:35 W 5 10.00 Fair CLR 38.3 26.1 61% 35 30.01 0.0
07 00:15 W 3 10.00 Fair CLR 38.3 26.2 62% 30.01 0.0
06 23:55 W 5 10.00 Fair CLR 38.3 26.2 62% 35 30.01 0.0
06 23:35 NW 5 10.00 Fair CLR 39.7 25.7 57% 37 30.01 0.0
06 23:15 W 3 10.00 Fair CLR 39.6 25.7 58% 30.01 0.0
06 22:55 NW 3 10.00 Fair CLR 39.7 25.7 57% 30.01 0.0
06 22:15 NW 3 10.00 Fair CLR 40.6 26.1 56% 30.01 0.0
06 21:55 NW 3 10.00 Fair CLR 41 26.4 56% 30.01 0.0
06 21:35 NW 5 10.00 Fair CLR 41 26.6 57% 38 30.01 0.0
06 21:15 NW 6 10.00 Fair CLR 42.1 26.6 54% 39 30 0.0
06 20:55 NW 7 10.00 Fair CLR 43 26.6 52% 39 29.99 0.0
06 20:35 NW 8 10.00 Fair CLR 44.8 25.7 47% 41 29.99 0.0
06 20:15 NW 9 10.00 Fair CLR 45.5 26.1 47% 41 29.99 0.0
06 19:55 NW 9 10.00 Partly Cloudy SCT065 46 26.2 46% 42 29.99 0.0
06 19:35 NW 15 G 18 10.00 Partly Cloudy SCT065 47.3 25.9 43% 42 29.98 0.0
06 19:15 NW 12 10.00 Fair CLR 47.1 26.6 45% 42 29.98 0.0
06 18:55 NW 10 G 23 10.00 Partly Cloudy SCT065 48.6 26.8 55.4 48.6 43% 45 29.98 0.0
06 18:35 NW 20 G 24 10.00 Partly Cloudy SCT065 49.5 26.1 40% 43 29.97 0.0
06 17:55 NW 17 G 26 10.00 Mostly Cloudy BKN065 50.9 27.7 41% 29.97 0.0
06 17:35 NW 16 G 25 10.00 Overcast OVC065 51.8 28 40% 29.96 0.0
06 17:15 W 20 G 26 10.00 Overcast OVC065 51.1 27.3 40% 29.96 0.0
06 16:35 NW 15 G 22 10.00 Mostly Cloudy BKN065 51.8 28.2 40% 29.95 0.0
06 16:15 W 18 G 25 10.00 Mostly Cloudy BKN065 53.4 28.8 39% 29.95 0.0
06 15:55 W 17 G 26 10.00 Mostly Cloudy BKN065 53.6 29.1 39% 29.95 0.0
06 15:35 W 18 G 25 10.00 Mostly Cloudy BKN065 54 29.8 40% 29.95 0.0
06 15:15 W 18 G 25 10.00 Mostly Cloudy BKN065 52.7 30 42% 29.96 0.0
06 14:55 NW 17 G 29 10.00 Overcast OVC065 52 28.8 41% 29.96 0.0
06 14:35 W 13 G 26 10.00 Overcast OVC065 54.7 29.5 38% 29.96 0.0
06 14:15 W 20 G 26 10.00 Mostly Cloudy BKN065 53.6 29.5 40% 29.96 0.0
06 13:55 W 21 G 24 10.00 Fair and Breezy CLR 54 28.8 38% 29.96 0.0
06 13:35 W 15 G 26 10.00 Fair CLR 53.4 27.9 37% 29.95 0.0
06 13:15 W 12 G 17 10.00 Partly Cloudy SCT070 54.1 28 37% 29.95 0.0
06 12:55 W 15 G 25 10.00 Mostly Cloudy BKN060 52 25.7 53.8 40.3 36% 29.96 0.0
06 12:35 W 13 G 24 10.00 Mostly Cloudy BKN060 52.5 27.9 39% 29.96 0.0
06 12:15 W 17 G 23 10.00 Mostly Cloudy BKN060 53.6 29.5 40% 29.96 0.0
06 11:55 W 16 G 22 10.00 Mostly Cloudy BKN060 52.9 28.4 39% 29.96 0.0
06 11:35 W 14 G 21 10.00 Overcast OVC060 50.9 27.9 41% 29.97 0.0
06 11:15 NW 14 G 20 10.00 Mostly Cloudy BKN060 52 27.9 39% 29.96 0.0
06 10:55 W 10 G 18 10.00 Mostly Cloudy BKN060 51.6 28 40% 29.96 0.0
06 10:35 W 10 10.00 Partly Cloudy SCT060 52.2 32 46% 29.96 0.0
06 10:15 W 6 10.00 Fair CLR 49.8 29.5 46% 48 29.96 0.0
06 09:55 W 12 10.00 Fair CLR 50 29.8 46% 46 29.97 0.0
06 09:35 W 12 10.00 Fair CLR 50.2 30.4 47% 29.97 0.0
06 09:15 W 6 10.00 Fair CLR 48.2 29.8 49% 46 29.97 0.0
06 08:55 W 9 10.00 Fair CLR 48 29.3 48% 44 29.97 0.0
06 08:35 W 8 10.00 Fair CLR 47.5 31.6 54% 44 29.96 0.0
06 08:15 W 7 10.00 Fair CLR 46 31.1 56% 43 29.95 0.0
06 07:55 Calm 10.00 Fair CLR 46.2 31.1 56% 29.94 0.0
06 07:35 W 3 10.00 Fair CLR 45 32.2 61% 29.94 0.0
06 06:55 Calm 10.00 Fair CLR 40.1 31.1 44.1 37.4 70% 29.91 0.0
Date Time (cdt) Wind (mph) Vis. (mi.) Weather Sky Cond. Air Dwpt Max. Min. Relative Humidity Wind Chill (°F) Heat Index (°F) altimeter (in) sea level (mb) 1 hr 3 hr 6 hr
6 hour
Temperature (ºF) Pressure Precipitation (in)